• Join FlightAware (Why Join?)
  • Login
  • US Flag 
01:31PM EDT


 

Airport Tracker/Info


-or-


 

Live Flight TrackerFlight Track Log ✈ EJA396 ✈ 11-Dec-2013 ✈ KSBA - KLAS

Flight Track Log - Related Links

Times and Time Zones

All times are in EST time to prevent confusion due to time zone crossing. See the EJA396 flight status page for this flight to view local times or setup timezone preferences in your user account.

Time Position Orientation Groundspeed Altitude Reporting Facility
EST Latitude Longitude Course Direction KTS MPH feet Rate Location/Type
12:14PM 34.4261 -119.8614 271° West 187 215 700  Level Los Angeles Center
12:15PM 34.4264 -119.8822 271° West 187 215 1,700 1,980 Climbing Los Angeles Center
12:15PM 34.4250 -119.8794 121° Southeast 156 180 1,500 2,460 Descending Los Angeles Center
12:16PM 34.3981 -119.9322 238° Southwest 277 319 4,500 3,120 Climbing Los Angeles Center
12:17PM 34.3211 -119.8892 155° Southeast 260 299 8,000 1,800 Climbing Los Angeles Center
12:18PM 34.2525 -119.8458 152° Southeast 275 316 8,300 1,740 Climbing Los Angeles Center
12:19PM 34.1811 -119.7997 152° Southeast 286 329 11,600 3,240 Climbing Los Angeles Center
12:20PM 34.1597 -119.6894 103° East 352 405 15,100 3,000 Climbing Los Angeles Center
12:21PM 34.1706 -119.5678 84° East 363 418 17,800 1,860 Climbing Los Angeles Center
12:22PM 34.2003 -119.4444 74° East 385 443 19,000 1,260 Climbing Los Angeles Center
12:23PM 34.2411 -119.2961 72° East 386 444 20,500 960 Climbing Los Angeles Center
12:24PM 34.2764 -119.1719 71° East 390 449 21,000 240 Climbing Los Angeles Center
12:25PM 34.3103 -119.0483 72° East 387 445 21,000 420 Level Los Angeles Center
12:26PM 34.3436 -118.9253 72° East 385 443 21,900 960 Climbing Los Angeles Center
12:27PM 34.3786 -118.7986 71° East 392 451 23,000 480 Climbing Los Angeles Center
12:28PM 34.4125 -118.6736 72° East 391 450 23,000 120 Level Los Angeles Center
12:29PM 34.4531 -118.5242 72° East 388 447 23,300 1,500 Climbing Los Angeles Center
12:30PM 34.4878 -118.3994 71° East 391 450 26,100 1,740 Climbing Los Angeles Center
12:31PM 34.5228 -118.2714 72° East 398 458 27,000 420 Climbing Los Angeles Center
12:32PM 34.5558 -118.1442 72° East 396 456 27,000  Level Los Angeles Center
12:33PM 34.5922 -118.0086 72° East 389 448 27,000  Level Los Angeles Center
12:34PM 34.6242 -117.8886 72° East 378 435 27,000  Level Los Angeles Center
12:35PM 34.6553 -117.7708 72° East 371 427 27,000  Level Los Angeles Center
12:36PM 34.6856 -117.6544 72° East 367 422 27,000  Level Los Angeles Center
12:37PM 34.7153 -117.5386 73° East 364 419 27,000  Level Los Angeles Center
12:38PM 34.7514 -117.4008 72° East 361 415 27,000  Level Los Angeles Center
12:39PM 34.7808 -117.2853 73° East 361 415 27,000  Level Los Angeles Center
12:40PM 34.8117 -117.1694 72° East 361 415 27,000  Level Los Angeles Center
12:42PM 34.8411 -117.0531 73° East 362 417 27,000  Level Los Angeles Center
12:43PM 34.8703 -116.9361 73° East 363 418 27,000  Level Los Angeles Center
12:44PM 34.9064 -116.7972 72° East 360 414 27,000  Level Los Angeles Center
12:45PM 34.9414 -116.6564 73° East 363 418 27,000  Level Los Angeles Center
12:46PM 34.9864 -116.5472 63° Northeast 363 418 27,000 -900 Level Los Angeles Center
12:47PM 35.0572 -116.4567 46° Northeast 368 423 25,200 -1,500 Descending Los Angeles Center
12:48PM 35.1328 -116.3631 45° Northeast 382 440 24,000 -1,080 Descending Los Angeles Center
12:49PM 35.2211 -116.2542 45° Northeast 378 435 23,000 -1,200 Descending Los Angeles Center
12:50PM 35.2897 -116.1664 46° Northeast 361 415 21,500 -1,560 Descending Los Angeles Center
12:51PM 35.3611 -116.0742 46° Northeast 370 426 19,800 -1,620 Descending Los Angeles Center
12:52PM 35.4339 -115.9819 46° Northeast 374 430 18,200 -1,560 Descending Los Angeles Center
12:53PM 35.5175 -115.8778 45° Northeast 376 433 16,600 -1,560 Descending Los Angeles Center
12:54PM 35.5831 -115.7958 45° Northeast 344 396 15,000 -1,680 Descending Los Angeles Center
12:54PM 35.6031 -115.7775 37° Northeast 341 392 14,600 -1,560 Descending Los Angeles Center
12:55PM 35.6469 -115.7211 46° Northeast 329 379 13,600 -1,200 Descending Los Angeles Center
12:55PM 35.6467 -115.7136 93° East 335 386 13,600 -600 Level Los Angeles Center
12:56PM 35.7061 -115.6442 43° Northeast 303 349 13,000 -600 Descending Los Angeles Center
12:56PM 35.7039 -115.6408 129° Southeast 307 353 13,000  Level Los Angeles Center
12:57PM 35.7778 -115.5742 36° Northeast 298 343 13,000  Level Los Angeles Center
12:58PM 35.8519 -115.5706 North 304 350 13,000  Level Los Angeles Center
12:58PM 35.8697 -115.5683 North 308 354 13,000  Level Los Angeles Center
12:59PM 35.9531 -115.5600 North 305 351 13,000  Level Los Angeles Center
12:59PM 35.9647 -115.5528 27° Northeast 310 357 13,000  Level Los Angeles Center
01:00PM 35.9931 -115.4931 60° Northeast 296 341 13,000 -360 Level Los Angeles Center
01:00PM 36.0003 -115.4722 67° East 292 336 12,700 -1,380 Descending Los Angeles Center
01:01PM 36.0222 -115.3986 70° East 276 318 11,500 -1,500 Descending Los Angeles Center
01:01PM 36.0278 -115.3850 63° Northeast 276 318 11,200 -1,200 Descending Los Angeles Center
01:02PM 36.0264 -115.3175 91° East 260 299 10,400 -1,080 Descending Los Angeles Center
01:02PM 36.0247 -115.2897 94° East 257 296 10,100 -1,020 Descending Los Angeles Center
01:03PM 36.0200 -115.2186 95° East 254 292 9,300 -1,020 Descending Los Angeles Center
01:03PM 36.0192 -115.2036 94° East 255 293 9,100 -900 Descending Los Angeles Center
01:04PM 36.0139 -115.1408 96° East 236 272 8,500 -780 Descending Los Angeles Center
01:05PM 36.0133 -115.1172 92° East 238 274 8,300 -600 Descending Los Angeles Center
01:05PM 36.0092 -115.0786 98° East 189 217 8,000 -300 Descending Los Angeles Center
01:06PM 36.0181 -115.0522 67° East 190 219 8,000 -900 Level Los Angeles Center
01:06PM 36.0458 -115.0397 20° North 191 220 7,100 -1,380 Descending Los Angeles Center
01:07PM 36.0664 -115.0306 20° North 185 213 6,600 -1,020 Descending Los Angeles Center
01:07PM 36.0911 -115.0194 20° North 173 199 6,100 -600 Descending Los Angeles Center
01:08PM 36.1136 -115.0108 17° North 168 193 6,000 -540 Descending Los Angeles Center
01:08PM 36.1275 -115.0367 304° West 185 213 5,600 -1,200 Descending Los Angeles Center
01:09PM 36.1269 -115.0661 269° West 191 220 4,800 -1,620 Descending Los Angeles Center
01:09PM 36.1258 -115.0986 268° West 182 209 4,000 -1,200 Descending Los Angeles Center
01:10PM 36.1267 -115.1236 272° West 144 166 3,600 -1,080 Descending Los Angeles Center
01:10PM 36.1189 -115.1461 247° West 119 137 2,800 -1,200 Descending Los Angeles Center
01:11PM 36.1072 -115.1519 202° Southwest 120 138 2,400 -960 Descending Los Angeles Center
01:13PM 36.0801 -115.1523 270° West  Level Estimated